Time;durP1;ratioP1;P1;durP2;ratioP2;P2;SDS_P1;SDS_P2;PMS_P1;PMS_P2;Temp;Humidity;BMP_temperature;BMP_pressure;BME280_temperature;BME280_humidity;BME280_pressure;Samples;Min_cycle;Max_cycle;Signal;HPM_P1;HPM_P2
2021/05/17 00:01:31;;;;;;;10.73;8.40;;;11.60;99.90;;;;;;4424868;32;20142;-82
2021/05/17 00:04:02;;;;;;;10.67;7.87;;;11.60;99.90;;;;;;4414307;32;20484;-81
2021/05/17 00:06:31;;;;;;;10.67;8.40;;;11.70;99.90;;;;;;4425253;32;20311;-79
2021/05/17 00:08:58;;;;;;;10.63;8.37;;;11.60;99.90;;;;;;4427099;32;20157;-83
2021/05/17 00:11:25;;;;;;;11.43;8.13;;;11.60;99.90;;;;;;4419581;32;20196;-82
2021/05/17 00:13:52;;;;;;;11.17;8.10;;;11.60;99.90;;;;;;4432695;32;20215;-82
2021/05/17 00:16:19;;;;;;;10.30;8.00;;;11.60;99.90;;;;;;4432812;32;20192;-81
2021/05/17 00:18:47;;;;;;;10.33;7.93;;;11.60;99.90;;;;;;4433473;32;20146;-82
2021/05/17 00:21:14;;;;;;;10.97;7.87;;;11.60;99.90;;;;;;4433909;32;20127;-82
2021/05/17 00:23:41;;;;;;;9.73;8.13;;;11.60;99.90;;;;;;4434385;32;20193;-81
2021/05/17 00:26:09;;;;;;;10.50;7.90;;;11.50;99.90;;;;;;4434589;32;20229;-80
2021/05/17 00:28:36;;;;;;;10.53;8.03;;;11.50;99.90;;;;;;4434906;32;20169;-84
2021/05/17 00:31:03;;;;;;;10.30;7.90;;;11.50;99.90;;;;;;4426788;32;20389;-82
2021/05/17 00:33:31;;;;;;;11.00;7.97;;;11.50;99.90;;;;;;4428145;32;20200;-81
2021/05/17 00:35:58;;;;;;;10.90;7.60;;;11.40;99.90;;;;;;4434737;32;20177;-82
2021/05/17 00:38:25;;;;;;;10.13;8.07;;;11.50;99.90;;;;;;4438835;32;20200;-81
2021/05/17 00:40:52;;;;;;;10.57;8.10;;;11.40;99.90;;;;;;4436670;32;20147;-80
2021/05/17 00:43:27;;;;;;;10.83;8.40;;;11.40;99.90;;;;;;4435421;32;20150;-81
2021/05/17 00:45:55;;;;;;;12.70;8.33;;;11.40;99.90;;;;;;4433759;32;20161;-82
2021/05/17 00:48:22;;;;;;;9.77;7.97;;;11.40;99.90;;;;;;4430509;32;20443;-83
2021/05/17 00:50:50;;;;;;;10.37;7.90;;;11.40;99.90;;;;;;4427823;32;20135;-79
2021/05/17 00:53:18;;;;;;;10.23;8.27;;;11.30;99.90;;;;;;4429306;32;20169;-81
2021/05/17 00:55:45;;;;;;;10.00;8.23;;;11.30;99.90;;;;;;4428124;32;20210;-80
2021/05/17 00:58:12;;;;;;;11.20;8.27;;;11.30;99.90;;;;;;4429093;32;20135;-81
2021/05/17 01:00:40;;;;;;;10.60;8.23;;;11.20;99.90;;;;;;4432220;32;20142;-80
2021/05/17 01:03:09;;;;;;;10.97;8.37;;;11.20;99.90;;;;;;4435619;32;20192;-79
2021/05/17 01:05:37;;;;;;;10.50;7.90;;;11.20;99.90;;;;;;4435370;32;20158;-80
2021/05/17 01:08:08;;;;;;;11.63;9.17;;;11.10;99.90;;;;;;4432996;32;20273;-80
2021/05/17 01:10:41;;;;;;;13.37;8.10;;;11.10;99.90;;;;;;4436047;32;20169;-79
2021/05/17 01:13:09;;;;;;;12.70;8.90;;;11.10;99.90;;;;;;4433023;32;20207;-79
2021/05/17 01:15:37;;;;;;;11.40;8.83;;;11.10;99.90;;;;;;4418228;32;20131;-79
2021/05/17 01:18:05;;;;;;;12.07;9.27;;;11.00;99.90;;;;;;4431568;32;20154;-78
2021/05/17 01:20:33;;;;;;;13.33;9.40;;;11.10;99.90;;;;;;4430981;32;20143;-79
2021/05/17 01:25:56;;;;;;;11.43;9.30;;;11.00;99.90;;;;;;4433882;32;20150;-80
2021/05/17 01:28:26;;;;;;;12.57;9.17;;;11.00;99.90;;;;;;4435006;32;20176;-80
2021/05/17 01:31:05;;;;;;;11.87;9.50;;;10.90;99.90;;;;;;4434649;32;20155;-80
2021/05/17 01:33:38;;;;;;;13.20;9.87;;;10.90;99.90;;;;;;4427248;32;20159;-81
2021/05/17 01:36:07;;;;;;;12.10;9.23;;;10.90;99.90;;;;;;4428620;32;20163;-79
2021/05/17 01:38:36;;;;;;;12.77;9.33;;;10.90;99.90;;;;;;4429383;32;20567;-79
2021/05/17 01:41:08;;;;;;;14.67;10.10;;;10.80;99.90;;;;;;4432584;32;20147;-79
2021/05/17 01:43:39;;;;;;;14.23;9.83;;;10.80;99.90;;;;;;4430399;32;20436;-81
2021/05/17 01:46:09;;;;;;;13.40;9.33;;;10.80;99.90;;;;;;4430767;32;20154;-79
2021/05/17 01:48:39;;;;;;;13.53;10.27;;;10.80;99.90;;;;;;4431277;32;20206;-80
2021/05/17 01:51:12;;;;;;;12.37;9.70;;;10.80;99.90;;;;;;4432458;32;20147;-80
2021/05/17 01:53:40;;;;;;;12.67;9.83;;;10.70;99.90;;;;;;4431343;32;20186;-79
2021/05/17 01:56:09;;;;;;;13.93;10.13;;;10.70;99.90;;;;;;4415587;32;20227;-80
2021/05/17 01:58:36;;;;;;;13.63;9.87;;;10.70;99.90;;;;;;4430863;32;20192;-80
2021/05/17 02:01:06;;;;;;;14.47;9.93;;;10.70;99.90;;;;;;4430855;32;20473;-80
2021/05/17 02:03:46;;;;;;;15.73;9.93;;;10.70;99.90;;;;;;4428647;32;20203;-79
2021/05/17 02:06:14;;;;;;;16.40;10.97;;;10.70;99.90;;;;;;4428552;32;20188;-80
2021/05/17 02:08:48;;;;;;;14.20;10.73;;;10.70;99.90;;;;;;4426654;32;20177;-81
2021/05/17 02:11:17;;;;;;;14.27;10.63;;;10.60;99.90;;;;;;4427202;32;20520;-80
2021/05/17 02:13:46;;;;;;;13.93;10.60;;;10.60;99.90;;;;;;4426921;32;20178;-78
2021/05/17 02:16:14;;;;;;;15.40;10.60;;;10.60;99.90;;;;;;4425438;32;20518;-79
2021/05/17 02:18:43;;;;;;;14.53;10.73;;;10.60;99.90;;;;;;4425647;32;20208;-80
2021/05/17 02:21:11;;;;;;;14.60;11.23;;;10.60;99.90;;;;;;4427319;32;20206;-80
2021/05/17 02:23:39;;;;;;;14.43;10.80;;;10.60;99.90;;;;;;4425022;32;20162;-79
2021/05/17 02:26:07;;;;;;;15.13;11.07;;;10.60;99.90;;;;;;4425090;32;20566;-79
2021/05/17 02:28:38;;;;;;;17.13;11.23;;;10.60;99.90;;;;;;4426839;32;20146;-80
2021/05/17 02:31:06;;;;;;;15.50;11.63;;;10.60;99.90;;;;;;4424632;32;20147;-80
2021/05/17 02:33:34;;;;;;;14.70;11.17;;;10.60;99.90;;;;;;4425932;32;20166;-80
2021/05/17 02:36:02;;;;;;;14.77;10.80;;;10.60;99.90;;;;;;4425263;32;20190;-80
2021/05/17 02:38:30;;;;;;;16.53;11.20;;;10.60;99.90;;;;;;4425446;32;20429;-80
2021/05/17 02:40:58;;;;;;;16.10;11.13;;;10.60;99.90;;;;;;4426410;32;20151;-80
2021/05/17 02:43:26;;;;;;;15.13;11.03;;;10.60;99.90;;;;;;4424776;32;20179;-80
2021/05/17 02:45:53;;;;;;;15.23;10.63;;;10.50;99.90;;;;;;4425049;32;20153;-79
2021/05/17 02:48:27;;;;;;;14.07;9.97;;;10.50;99.90;;;;;;4426646;32;20181;-79
2021/05/17 02:50:54;;;;;;;14.03;10.67;;;10.50;99.90;;;;;;4426414;32;20131;-81
2021/05/17 02:53:50;;;;;;;12.73;9.33;;;10.40;99.90;;;;;;4425640;32;20500;-80
2021/05/17 02:56:28;;;;;;;12.17;9.67;;;10.40;99.90;;;;;;4425917;32;20185;-80
2021/05/17 02:58:57;;;;;;;12.50;9.37;;;10.30;99.90;;;;;;4424884;32;20436;-80
2021/05/17 03:01:40;;;;;;;13.87;10.00;;;10.30;99.90;;;;;;4424964;32;20156;-80
2021/05/17 03:04:13;;;;;;;14.50;9.97;;;10.20;99.90;;;;;;4425390;32;20203;-81
2021/05/17 03:06:41;;;;;;;13.90;9.60;;;10.10;99.90;;;;;;4426042;32;20173;-80
2021/05/17 03:09:10;;;;;;;14.43;9.97;;;10.10;99.90;;;;;;4426159;32;20131;-81
2021/05/17 03:11:46;;;;;;;15.00;9.93;;;10.10;99.90;;;;;;4424420;32;20386;-80
2021/05/17 03:14:16;;;;;;;15.27;10.47;;;10.00;99.90;;;;;;4424462;32;20169;-80
2021/05/17 03:16:46;;;;;;;14.33;10.10;;;10.00;99.90;;;;;;4424849;32;20279;-80
2021/05/17 03:19:15;;;;;;;13.90;10.13;;;10.10;99.90;;;;;;4426809;32;20365;-80
2021/05/17 03:21:43;;;;;;;14.57;10.07;;;10.10;99.90;;;;;;4424980;32;20174;-80
2021/05/17 03:24:12;;;;;;;14.47;10.00;;;10.20;99.90;;;;;;4426292;32;20162;-80
2021/05/17 03:26:40;;;;;;;20.10;10.83;;;10.20;99.90;;;;;;4424681;32;20142;-81
2021/05/17 03:29:07;;;;;;;15.73;10.63;;;10.20;99.90;;;;;;4424581;32;20183;-81
2021/05/17 03:31:34;;;;;;;14.93;10.17;;;10.20;99.90;;;;;;4424594;32;20185;-80
2021/05/17 03:34:01;;;;;;;18.47;10.27;;;10.20;99.90;;;;;;4426023;32;20473;-80
2021/05/17 03:36:28;;;;;;;13.83;10.33;;;10.20;99.90;;;;;;4424723;32;20170;-80
2021/05/17 03:38:55;;;;;;;14.80;10.83;;;10.20;99.90;;;;;;4425298;32;20169;-81
2021/05/17 03:41:22;;;;;;;19.17;11.70;;;10.20;99.90;;;;;;4424637;32;20184;-80
2021/05/17 03:43:49;;;;;;;18.70;11.10;;;10.20;99.90;;;;;;4425268;32;20484;-80
2021/05/17 03:46:16;;;;;;;17.67;12.03;;;10.20;99.90;;;;;;4424547;32;20127;-81
2021/05/17 03:48:43;;;;;;;24.90;12.23;;;10.20;99.90;;;;;;4424446;32;20161;-80
2021/05/17 03:51:11;;;;;;;19.90;11.70;;;10.30;99.90;;;;;;4423833;32;20146;-81
2021/05/17 03:53:39;;;;;;;16.33;11.17;;;10.30;99.90;;;;;;4423995;32;20178;-81
2021/05/17 03:56:06;;;;;;;18.10;12.07;;;10.30;99.90;;;;;;4425108;32;20173;-80
2021/05/17 03:58:33;;;;;;;19.20;11.30;;;10.40;99.90;;;;;;4424575;32;20227;-81
2021/05/17 04:01:00;;;;;;;17.10;12.23;;;10.40;99.90;;;;;;4424502;32;20151;-81
2021/05/17 04:03:28;;;;;;;19.17;12.40;;;10.50;99.90;;;;;;4424613;32;20127;-81
2021/05/17 04:14:00;;;;;;;17.97;12.10;;;10.60;99.90;;;;;;4428925;32;20372;-81
2021/05/17 04:16:27;;;;;;;18.87;11.93;;;10.60;99.90;;;;;;4428304;32;20206;-80
2021/05/17 04:18:54;;;;;;;21.93;12.97;;;10.70;99.90;;;;;;4425950;32;20225;-80
2021/05/17 04:21:21;;;;;;;18.60;11.77;;;10.70;99.90;;;;;;4423744;32;20142;-80
2021/05/17 04:23:48;;;;;;;19.87;13.13;;;10.80;99.90;;;;;;4428520;32;20170;-81
2021/05/17 04:26:15;;;;;;;19.67;12.70;;;10.80;99.90;;;;;;4427178;32;20214;-81
2021/05/17 04:28:42;;;;;;;24.23;12.97;;;10.90;99.90;;;;;;4428559;32;20179;-80
2021/05/17 04:31:08;;;;;;;19.33;12.67;;;10.90;99.90;;;;;;4426943;32;20196;-80
2021/05/17 04:33:35;;;;;;;19.23;12.77;;;11.00;99.90;;;;;;4426689;32;20246;-81
2021/05/17 04:36:03;;;;;;;18.97;12.70;;;11.00;99.90;;;;;;4428409;32;20212;-80
2021/05/17 04:38:30;;;;;;;19.70;12.77;;;11.10;99.90;;;;;;4426711;32;20427;-80
2021/05/17 04:40:57;;;;;;;19.23;13.03;;;11.20;99.90;;;;;;4428091;32;20151;-79
2021/05/17 04:43:24;;;;;;;20.87;13.23;;;11.30;99.90;;;;;;4427560;32;20151;-81
2021/05/17 04:45:51;;;;;;;21.73;13.60;;;11.30;99.90;;;;;;4426774;32;20495;-80
2021/05/17 04:48:18;;;;;;;24.23;14.33;;;11.40;99.90;;;;;;4427112;32;20162;-81
2021/05/17 04:50:46;;;;;;;21.10;13.23;;;11.50;99.90;;;;;;4427575;32;20151;-81
2021/05/17 04:53:13;;;;;;;23.80;14.30;;;11.50;99.90;;;;;;4426598;32;20446;-80
2021/05/17 04:55:40;;;;;;;21.43;13.93;;;11.50;99.90;;;;;;4426605;32;20233;-81
2021/05/17 04:58:08;;;;;;;22.63;14.60;;;11.60;99.90;;;;;;4425912;32;20480;-81
2021/05/17 05:00:36;;;;;;;23.10;13.73;;;11.80;99.90;;;;;;4426512;32;20210;-80
2021/05/17 05:03:03;;;;;;;25.03;15.00;;;11.90;99.90;;;;;;4427606;32;20300;-81
2021/05/17 05:05:30;;;;;;;22.00;13.77;;;12.00;99.90;;;;;;4426371;32;20127;-80
2021/05/17 05:07:57;;;;;;;20.90;13.77;;;12.10;99.90;;;;;;4427311;32;20135;-80
2021/05/17 05:10:24;;;;;;;19.90;13.77;;;12.00;99.90;;;;;;4426647;32;20143;-80
2021/05/17 05:12:51;;;;;;;21.30;13.33;;;12.00;99.90;;;;;;4426420;32;20147;-80
2021/05/17 05:15:18;;;;;;;23.33;14.60;;;12.00;99.90;;;;;;4427010;32;20150;-81
2021/05/17 05:17:45;;;;;;;20.27;13.87;;;11.80;99.90;;;;;;4426088;32;20173;-80
2021/05/17 05:20:12;;;;;;;23.17;14.83;;;11.80;99.90;;;;;;4427341;32;20240;-80
2021/05/17 05:22:40;;;;;;;22.73;14.83;;;11.90;99.90;;;;;;4426338;32;20436;-80
2021/05/17 05:25:08;;;;;;;26.23;16.20;;;12.00;99.90;;;;;;4426606;32;20131;-80
2021/05/17 05:27:39;;;;;;;25.70;15.73;;;12.00;99.90;;;;;;4427648;32;20142;-80
2021/05/17 05:33:06;;;;;;;27.60;16.20;;;12.20;99.90;;;;;;4427522;32;20206;-81
2021/05/17 05:35:34;;;;;;;25.53;15.53;;;12.20;99.90;;;;;;4426488;32;20189;-82
2021/05/17 05:38:01;;;;;;;22.63;14.63;;;12.20;99.90;;;;;;4426663;32;20205;-81
2021/05/17 05:40:27;;;;;;;25.47;15.73;;;12.30;99.90;;;;;;4426348;32;20131;-82
2021/05/17 05:42:54;;;;;;;25.30;16.10;;;12.40;99.90;;;;;;4426113;32;20222;-81
2021/05/17 05:45:25;;;;;;;23.97;15.70;;;12.50;99.90;;;;;;4427970;32;20147;-81
2021/05/17 05:47:52;;;;;;;26.53;16.97;;;12.50;99.90;;;;;;4425777;32;20385;-82
2021/05/17 05:50:19;;;;;;;27.43;17.67;;;12.60;99.90;;;;;;4425735;32;20139;-79
2021/05/17 05:52:46;;;;;;;26.83;17.33;;;12.70;99.90;;;;;;4426557;32;20155;-80
2021/05/17 05:55:14;;;;;;;27.03;17.53;;;12.80;99.90;;;;;;4425755;32;20227;-80
2021/05/17 05:57:44;;;;;;;25.43;16.53;;;13.00;99.90;;;;;;4427073;32;20162;-81
2021/05/17 06:00:17;;;;;;;26.30;17.03;;;13.10;99.90;;;;;;4427138;32;20139;-80
2021/05/17 06:02:44;;;;;;;24.80;16.90;;;13.20;99.90;;;;;;4425384;32;20454;-80
2021/05/17 06:05:11;;;;;;;26.90;16.97;;;13.40;99.90;;;;;;4425668;32;20416;-79
2021/05/17 06:07:38;;;;;;;25.73;17.00;;;13.50;99.90;;;;;;4426973;32;20244;-80
2021/05/17 06:10:07;;;;;;;25.10;15.90;;;13.60;99.90;;;;;;4425480;32;20138;-80
2021/05/17 06:12:34;;;;;;;26.53;16.60;;;13.60;99.90;;;;;;4426177;32;20219;-81
2021/05/17 06:15:03;;;;;;;24.77;17.03;;;13.70;99.90;;;;;;4426651;32;20197;-79
2021/05/17 06:17:31;;;;;;;23.37;15.87;;;13.70;99.90;;;;;;4425515;32;20134;-79
2021/05/17 06:19:58;;;;;;;25.77;16.13;;;13.70;99.90;;;;;;4426956;32;20139;-80
2021/05/17 06:22:30;;;;;;;27.07;16.40;;;13.70;99.90;;;;;;4426870;32;20143;-81
2021/05/17 06:24:58;;;;;;;25.00;16.30;;;13.70;99.90;;;;;;4425774;32;20378;-82
2021/05/17 06:27:25;;;;;;;28.37;17.27;;;13.60;99.90;;;;;;4425428;32;20138;-82
2021/05/17 06:29:54;;;;;;;28.03;17.17;;;13.50;99.90;;;;;;4424668;32;20231;-83
2021/05/17 06:32:23;;;;;;;28.63;17.07;;;13.50;99.90;;;;;;4424673;32;20173;-82
2021/05/17 06:34:50;;;;;;;31.63;18.30;;;13.70;99.90;;;;;;4424771;32;20203;-82
2021/05/17 06:37:17;;;;;;;27.73;17.20;;;13.90;99.90;;;;;;4425476;32;20281;-82
2021/05/17 06:39:44;;;;;;;27.80;16.47;;;14.10;99.90;;;;;;4424490;32;20186;-83
2021/05/17 06:42:12;;;;;;;26.23;16.63;;;14.30;99.90;;;;;;4425213;32;20230;-80
2021/05/17 06:44:39;;;;;;;24.70;15.97;;;14.40;99.90;;;;;;4424840;32;20481;-81
2021/05/17 06:47:09;;;;;;;25.50;15.60;;;14.50;99.90;;;;;;4424624;32;20213;-81
2021/05/17 06:49:37;;;;;;;24.20;15.47;;;14.50;99.90;;;;;;4426666;32;20127;-82
2021/05/17 06:52:06;;;;;;;25.87;16.17;;;14.60;99.90;;;;;;4424817;32;20165;-83
2021/05/17 06:54:34;;;;;;;23.17;15.60;;;14.60;99.90;;;;;;4425135;32;20177;-82
2021/05/17 06:57:18;;;;;;;24.93;16.70;;;14.70;99.90;;;;;;4425856;32;20197;-82
2021/05/17 06:59:47;;;;;;;25.43;15.73;;;14.60;99.90;;;;;;4425379;32;20139;-80
2021/05/17 07:02:19;;;;;;;24.27;16.57;;;14.60;99.90;;;;;;4424301;32;20480;-82
2021/05/17 07:04:47;;;;;;;24.00;15.83;;;14.70;99.90;;;;;;4425701;32;20166;-81
2021/05/17 07:07:20;;;;;;;27.00;16.13;;;14.80;99.90;;;;;;4423990;32;20162;-83
2021/05/17 07:12:33;;;;;;;23.50;15.87;;;15.00;99.90;;;;;;4425332;32;20547;-81
2021/05/17 07:15:05;;;;;;;26.70;16.43;;;15.10;99.90;;;;;;4425674;32;20189;-83
2021/05/17 07:17:32;;;;;;;23.77;16.47;;;15.10;99.90;;;;;;4425557;32;20135;-83
2021/05/17 07:19:59;;;;;;;24.80;17.07;;;15.20;99.90;;;;;;4424626;32;20414;-83
2021/05/17 07:25:11;;;;;;;23.67;16.23;;;15.30;99.90;;;;;;4425905;32;20187;-78
2021/05/17 07:27:38;;;;;;;25.17;16.17;;;15.40;99.90;;;;;;4410718;32;20143;-76
2021/05/17 07:30:06;;;;;;;24.10;15.53;;;15.60;99.90;;;;;;4425455;32;20161;-78
2021/05/17 07:32:33;;;;;;;24.20;16.03;;;15.70;99.90;;;;;;4424116;32;20139;-77
2021/05/17 07:35:01;;;;;;;24.80;16.27;;;15.90;99.90;;;;;;4425603;32;20605;-77
2021/05/17 07:37:28;;;;;;;24.40;16.23;;;15.80;99.90;;;;;;4425821;32;20160;-77
2021/05/17 07:39:55;;;;;;;27.13;16.60;;;15.90;99.90;;;;;;4424430;32;20155;-77
2021/05/17 07:42:22;;;;;;;25.43;17.27;;;15.90;99.90;;;;;;4425804;32;20185;-71
2021/05/17 07:44:49;;;;;;;24.47;16.53;;;15.90;99.90;;;;;;4423616;32;20193;-73
2021/05/17 07:47:16;;;;;;;24.67;16.90;;;15.80;99.90;;;;;;4424185;32;20126;-73
2021/05/17 07:49:51;;;;;;;24.00;15.90;;;15.80;99.90;;;;;;4424152;32;20507;-73
2021/05/17 07:52:18;;;;;;;23.77;15.80;;;15.90;99.90;;;;;;4423904;32;20270;-74
2021/05/17 07:54:45;;;;;;;24.77;16.20;;;15.90;99.90;;;;;;4424188;32;20162;-75
2021/05/17 07:57:13;;;;;;;22.60;14.93;;;15.90;99.90;;;;;;4424142;32;20150;-74
2021/05/17 07:59:43;;;;;;;23.27;15.20;;;16.00;99.90;;;;;;4425632;32;20408;-74
2021/05/17 08:02:10;;;;;;;22.50;14.50;;;15.90;99.90;;;;;;4424147;32;20188;-77
2021/05/17 08:04:37;;;;;;;22.67;14.43;;;16.00;99.90;;;;;;4424253;32;20449;-76
2021/05/17 08:07:05;;;;;;;22.70;15.30;;;15.90;99.90;;;;;;4423439;32;20147;-73
2021/05/17 08:09:33;;;;;;;22.07;15.17;;;15.90;99.90;;;;;;4423694;32;20146;-73
2021/05/17 08:12:00;;;;;;;20.97;15.33;;;15.90;99.90;;;;;;4424046;32;20161;-73
2021/05/17 08:14:27;;;;;;;20.57;14.47;;;16.20;99.90;;;;;;4423263;32;20181;-75
2021/05/17 08:16:55;;;;;;;18.13;13.07;;;17.20;99.90;;;;;;4423823;32;20458;-73
2021/05/17 08:19:23;;;;;;;17.00;11.97;;;18.10;99.90;;;;;;4425242;32;20165;-73
2021/05/17 08:21:49;;;;;;;14.47;10.57;;;18.80;99.90;;;;;;4423667;32;20127;-75
2021/05/17 08:24:17;;;;;;;12.67;9.73;;;19.40;99.90;;;;;;4423670;32;20202;-72
2021/05/17 08:26:43;;;;;;;12.77;9.10;;;19.70;99.90;;;;;;4425132;32;20206;-71
2021/05/17 08:29:10;;;;;;;11.37;8.40;;;20.20;99.90;;;;;;4423986;32;20139;-73
2021/05/17 08:31:37;;;;;;;12.37;9.67;;;20.60;99.90;;;;;;4424739;32;20172;-74
2021/05/17 08:34:05;;;;;;;12.20;8.70;;;21.10;99.90;;;;;;4423701;32;20561;-74
2021/05/17 08:36:32;;;;;;;11.03;8.17;;;21.30;95.80;;;;;;4423843;32;20143;-73
2021/05/17 08:38:59;;;;;;;10.33;8.37;;;21.00;91.90;;;;;;4423748;32;20146;-75
2021/05/17 08:41:27;;;;;;;14.07;8.90;;;21.10;95.20;;;;;;4423951;32;20197;-75
2021/05/17 08:43:55;;;;;;;9.83;8.57;;;21.30;93.30;;;;;;4424242;32;20170;-76
2021/05/17 08:46:23;;;;;;;10.23;7.90;;;21.50;93.60;;;;;;4425011;32;20166;-73
2021/05/17 08:48:50;;;;;;;11.67;8.93;;;21.40;90.90;;;;;;4423773;32;20402;-74
2021/05/17 08:51:27;;;;;;;10.27;8.30;;;21.40;92.10;;;;;;4425046;32;20135;-72
2021/05/17 08:53:58;;;;;;;9.77;7.93;;;21.70;91.80;;;;;;4424530;32;20189;-73
2021/05/17 08:56:26;;;;;;;9.73;7.30;;;21.80;92.30;;;;;;4423894;32;20188;-73
2021/05/17 08:58:58;;;;;;;8.10;6.30;;;22.10;90.30;;;;;;4418056;32;20416;-73
2021/05/17 09:01:26;;;;;;;7.97;6.00;;;22.10;90.10;;;;;;4417777;32;20175;-73
2021/05/17 09:04:04;;;;;;;7.57;6.30;;;22.20;85.40;;;;;;4412170;32;20222;-73
2021/05/17 09:06:51;;;;;;;7.70;6.17;;;22.10;84.00;;;;;;4410935;32;20135;-73
2021/05/17 09:09:30;;;;;;;7.70;5.57;;;22.20;82.40;;;;;;4412558;32;20151;-78
2021/05/17 09:12:11;;;;;;;8.70;5.30;;;22.10;80.80;;;;;;4410158;32;20480;-73
2021/05/17 09:14:39;;;;;;;7.97;5.17;;;22.20;80.80;;;;;;4412245;32;20193;-73
2021/05/17 09:17:08;;;;;;;7.17;4.90;;;22.50;81.50;;;;;;4410827;32;20146;-71
2021/05/17 09:19:39;;;;;;;7.23;5.27;;;21.70;78.20;;;;;;4410453;32;20135;-72
2021/05/17 09:22:18;;;;;;;10.18;4.97;;;22.00;79.20;;;;;;4410106;32;20188;-72
2021/05/17 09:24:47;;;;;;;5.07;4.47;;;22.20;78.10;;;;;;4418647;32;20146;-72
2021/05/17 09:27:20;;;;;;;4.37;3.87;;;22.50;75.80;;;;;;4410443;32;20495;-73
2021/05/17 09:29:52;;;;;;;7.95;4.35;;;22.70;75.10;;;;;;4410236;32;20198;-72
2021/05/17 09:32:25;;;;;;;5.18;4.35;;;23.10;78.60;;;;;;4409574;32;20206;-72
2021/05/17 09:35:05;;;;;;;5.73;3.70;;;23.50;73.40;;;;;;4411733;32;20165;-73
2021/05/17 09:37:41;;;;;;;4.97;3.83;;;23.50;68.40;;;;;;4416407;32;20162;-73
2021/05/17 09:40:23;;;;;;;5.32;3.50;;;23.60;65.30;;;;;;4411975;32;20501;-73
2021/05/17 09:43:09;;;;;;;4.03;3.07;;;23.70;63.70;;;;;;4410473;32;20155;-74
2021/05/17 09:45:47;;;;;;;6.45;3.80;;;24.00;65.70;;;;;;4426008;32;20139;-73
2021/05/17 09:48:19;;;;;;;6.32;3.58;;;24.50;63.40;;;;;;4426344;32;20174;-73
2021/05/17 09:51:02;;;;;;;4.43;3.40;;;24.70;60.90;;;;;;4426237;32;20147;-73
2021/05/17 09:53:39;;;;;;;5.72;3.90;;;25.00;59.10;;;;;;4425474;32;20131;-72
2021/05/17 09:56:10;;;;;;;3.50;3.20;;;24.70;61.50;;;;;;4426932;32;20165;-74
2021/05/17 09:58:40;;;;;;;3.97;3.00;;;24.90;58.50;;;;;;4423818;32;20166;-73
2021/05/17 10:01:27;;;;;;;4.20;3.60;;;25.20;57.80;;;;;;4419160;32;20147;-73
2021/05/17 10:04:04;;;;;;;4.28;2.83;;;25.40;59.50;;;;;;4413625;32;20229;-74
2021/05/17 10:06:31;;;;;;;4.68;2.80;;;25.80;55.30;;;;;;4411889;32;20174;-72
2021/05/17 10:08:59;;;;;;;3.83;3.00;;;26.10;53.30;;;;;;4410111;32;20162;-71
2021/05/17 10:11:27;;;;;;;5.00;2.97;;;26.60;53.30;;;;;;4411728;32;20127;-71
2021/05/17 10:13:55;;;;;;;4.10;3.17;;;26.90;53.00;;;;;;4410123;32;20167;-73
2021/05/17 10:16:23;;;;;;;4.57;2.92;;;27.20;51.60;;;;;;4410190;32;20151;-69
2021/05/17 10:18:51;;;;;;;5.22;3.00;;;27.20;50.20;;;;;;4418712;32;20189;-73
2021/05/17 10:21:22;;;;;;;3.53;2.80;;;26.40;50.00;;;;;;4418754;32;20177;-72
2021/05/17 10:23:49;;;;;;;5.07;2.58;;;25.60;51.00;;;;;;4417218;32;20178;-71
2021/05/17 10:26:23;;;;;;;2.60;2.35;;;24.90;52.10;;;;;;4409757;32;20199;-71
2021/05/17 10:28:59;;;;;;;2.67;2.20;;;24.20;52.60;;;;;;4409895;32;20157;-70
2021/05/17 10:31:27;;;;;;;3.28;2.12;;;24.10;54.30;;;;;;4410738;32;20147;-70
2021/05/17 10:34:04;;;;;;;5.62;2.80;;;23.90;53.70;;;;;;4409857;32;20222;-72
2021/05/17 10:36:51;;;;;;;4.90;2.50;;;23.80;53.80;;;;;;4409963;32;20237;-79
2021/05/17 10:39:23;;;;;;;3.40;2.47;;;24.20;56.00;;;;;;4409999;32;20210;-71
2021/05/17 10:42:05;;;;;;;2.92;2.40;;;24.60;54.60;;;;;;4410053;32;20150;-72
2021/05/17 10:47:48;;;;;;;3.10;2.40;;;25.50;53.60;;;;;;4426056;32;20143;-74
2021/05/17 10:50:21;;;;;;;3.80;2.67;;;25.80;52.30;;;;;;4424561;32;20499;-74
2021/05/17 10:52:48;;;;;;;3.10;2.45;;;26.30;51.30;;;;;;4426802;32;20131;-73
2021/05/17 10:55:16;;;;;;;4.12;2.90;;;26.90;50.50;;;;;;4424610;32;20173;-71
2021/05/17 11:00:32;;;;;;;3.15;2.22;;;28.00;48.20;;;;;;4425503;32;20139;-72
2021/05/17 11:03:25;;;;;;;3.47;2.30;;;27.70;45.60;;;;;;4424804;32;20300;-71
2021/05/17 11:05:55;;;;;;;3.75;2.30;;;27.20;46.30;;;;;;4425942;32;20162;-72
2021/05/17 11:08:24;;;;;;;5.93;2.30;;;27.00;46.60;;;;;;4424111;32;20131;-71
2021/05/17 11:10:53;;;;;;;3.65;2.33;;;27.00;46.30;;;;;;4420362;32;20204;-69
2021/05/17 11:13:23;;;;;;;3.75;2.50;;;26.90;48.00;;;;;;4415381;32;20206;-73
2021/05/17 11:16:03;;;;;;;4.00;2.35;;;26.70;46.90;;;;;;4408845;32;20139;-74
2021/05/17 11:18:51;;;;;;;4.95;2.47;;;26.90;47.30;;;;;;4408352;32;20162;-73
2021/05/17 11:21:29;;;;;;;3.30;2.30;;;27.00;46.70;;;;;;4409895;32;20150;-73
2021/05/17 11:24:01;;;;;;;3.42;2.22;;;26.70;45.80;;;;;;4409441;32;20241;-74
2021/05/17 11:26:31;;;;;;;2.80;2.40;;;26.40;47.10;;;;;;4409290;32;20135;-75
2021/05/17 11:29:00;;;;;;;3.55;2.40;;;26.10;47.80;;;;;;4409058;32;20165;-75
2021/05/17 11:31:39;;;;;;;3.78;2.12;;;25.60;48.40;;;;;;4410615;32;20488;-74
2021/05/17 11:34:13;;;;;;;3.05;2.08;;;25.10;49.60;;;;;;4409482;32;20171;-74
2021/05/17 11:36:49;;;;;;;3.75;2.40;;;24.70;49.40;;;;;;4409643;32;20143;-74
2021/05/17 11:39:34;;;;;;;3.28;1.90;;;24.30;49.40;;;;;;4408933;32;20131;-74
2021/05/17 11:42:04;;;;;;;6.47;2.20;;;24.10;50.90;;;;;;4408870;32;20180;-74
2021/05/17 11:44:44;;;;;;;5.10;2.30;;;24.00;50.80;;;;;;4419741;32;20202;-73
2021/05/17 11:47:19;;;;;;;5.60;2.47;;;23.90;51.80;;;;;;4425204;32;20131;-73
2021/05/17 11:49:49;;;;;;;2.47;2.10;;;23.80;52.00;;;;;;4416305;32;20151;-73
2021/05/17 11:52:20;;;;;;;2.72;2.15;;;23.80;51.80;;;;;;4421689;32;20178;-73
2021/05/17 11:54:50;;;;;;;2.80;2.40;;;23.10;51.40;;;;;;4426102;32;20433;-74
2021/05/17 11:57:20;;;;;;;3.40;2.20;;;22.70;52.90;;;;;;4424148;32;20153;-73
2021/05/17 11:59:50;;;;;;;3.37;2.07;;;22.50;53.70;;;;;;4425857;32;20142;-73
2021/05/17 12:02:17;;;;;;;2.57;2.00;;;22.10;53.40;;;;;;4415929;32;20196;-73
2021/05/17 12:04:45;;;;;;;3.10;2.17;;;22.00;54.40;;;;;;4412891;32;20147;-73
2021/05/17 12:07:17;;;;;;;2.37;2.10;;;22.10;56.00;;;;;;4425422;32;20423;-73
2021/05/17 12:09:45;;;;;;;2.80;2.00;;;22.10;55.60;;;;;;4425277;32;20210;-72
2021/05/17 12:12:21;;;;;;;2.87;2.07;;;22.00;54.90;;;;;;4412046;32;20165;-73
2021/05/17 12:15:05;;;;;;;2.40;1.83;;;22.00;55.00;;;;;;4409285;32;20351;-74
2021/05/17 12:17:33;;;;;;;2.57;1.90;;;22.10;56.00;;;;;;4401721;32;20148;-73
2021/05/17 12:20:11;;;;;;;7.80;1.90;;;22.00;55.60;;;;;;4391982;32;20166;-73
2021/05/17 12:22:44;;;;;;;4.83;1.90;;;21.90;55.20;;;;;;4393248;32;20143;-72
2021/05/17 12:25:18;;;;;;;2.80;1.90;;;21.90;56.80;;;;;;4394402;32;20139;-72
2021/05/17 12:27:47;;;;;;;3.30;1.90;;;21.80;57.70;;;;;;4394896;32;20144;-72
2021/05/17 12:30:24;;;;;;;2.47;1.77;;;21.90;57.90;;;;;;4393579;32;20144;-72
2021/05/17 12:32:54;;;;;;;2.43;1.50;;;21.70;56.70;;;;;;4396053;32;20420;-72
2021/05/17 12:35:29;;;;;;;5.87;1.87;;;21.70;56.20;;;;;;4398021;32;20139;-72
2021/05/17 12:38:03;;;;;;;3.23;2.00;;;21.60;55.80;;;;;;4396323;32;20186;-72
2021/05/17 12:40:37;;;;;;;3.57;2.00;;;21.70;56.30;;;;;;4397686;32;20162;-72
2021/05/17 12:43:18;;;;;;;3.13;1.80;;;21.60;58.60;;;;;;4397468;32;20232;-72
2021/05/17 12:45:47;;;;;;;3.13;1.63;;;21.50;57.90;;;;;;4411369;32;20185;-72
2021/05/17 12:48:27;;;;;;;3.10;1.87;;;21.60;57.70;;;;;;4411617;32;20154;-71
2021/05/17 12:51:11;;;;;;;2.57;1.93;;;21.80;57.20;;;;;;4412859;32;20159;-72
2021/05/17 12:53:38;;;;;;;4.37;1.60;;;21.80;56.20;;;;;;4412509;32;20507;-72
2021/05/17 12:56:06;;;;;;;2.77;1.70;;;21.80;55.00;;;;;;4411337;32;20151;-72
2021/05/17 12:58:41;;;;;;;4.07;1.80;;;21.60;56.00;;;;;;4412261;32;20147;-73
2021/05/17 13:01:15;;;;;;;2.27;1.50;;;21.50;56.60;;;;;;4411392;32;20503;-73
2021/05/17 13:03:42;;;;;;;2.43;1.50;;;21.50;57.00;;;;;;4411435;32;20162;-73
2021/05/17 13:06:19;;;;;;;2.87;1.60;;;21.60;56.90;;;;;;4411393;32;20193;-73
2021/05/17 13:08:55;;;;;;;2.40;1.47;;;21.40;56.80;;;;;;4411717;32;20174;-73
2021/05/17 13:11:28;;;;;;;3.43;1.73;;;21.40;58.10;;;;;;4416468;32;20213;-73
2021/05/17 13:14:02;;;;;;;3.33;1.80;;;21.20;57.90;;;;;;4425883;32;20154;-73
2021/05/17 13:16:49;;;;;;;4.17;1.80;;;21.50;58.00;;;;;;4412035;32;20235;-73